Almo, KY (42020)

12:18 AM CST on December 06, 2016 (GMT -0600)
APRSWXNET | | Change Station

Elev 528 ft 36.67 °N, 88.33 °W | Updated 48 minutes ago

Overcast
Overcast
45 °F
Feels Like 45 °F
N
2
Wind Variable Wind from East
Gusts 0.0 mph

Today
High -- | Low -- °F
--% Chance of Precip.
Yesterday
High -- | Low -- °F
Precip. -- in
Pressure 29.72 in
Visibility 1.5 miles
Clouds Overcast 200 ft
Windchill 45 °F
Dew Point 45 °F
Humidity 99%
Rainfall in
Snow Depth Not available.
6:51 AM 4:36 PM
Waxing Crescent, 38% visible
METAR KCEY 060555Z AUTO 07006KT 1 1/2SM OVC002 05/05 A2972 RMK AO1 P0001
Pressure 29.72 in
Visibility 1.5 miles
Clouds Overcast 200 ft
Windchill 45 °F
Dew Point 45 °F
Humidity 99%
Rainfall in
Snow Depth Not available.
6:51 AM 4:36 PM
Waxing Crescent, 38% visible
METAR KCEY 060555Z AUTO 07006KT 1 1/2SM OVC002 05/05 A2972 RMK AO1 P0001

10-Day Weather Forecast

Almanac

Astronomy

Dec. 06, 2016 Rise Set
Actual Time
Civil Twilight
Nautical Twilight
Astronomical Twilight
Moon
Length of Visible Light
Length of Day
Tomorrow will be .
, % of the Moon is Illuminated

Today's Extremes

State Highs State Lows

Community

WunderPhotos

Upload Photos

1,955,932 photos uploaded!

WunderBlog® & News

Nearby

Air Quality

  Air Quality AQ Index Pollutant
Not available.

Snow Depth

Station Depth Elevation

Earthquake Activity

City Distance Mag. Time & Date
Minimum magnitude displayed is 2.5.

Coastal Water Temperatures

Place Temperature

Stations

Nearby Weather Stations

Station Location Temp. Windchill Dew Point Humidity Wind Precip. Elev Updated Type
                   

Watches & Warnings

There are currently no watches in effect.